Impacts METAR Board INFO
IDs:

KPHX - Phoenix/Sky Harbor, AZ, US

Updated at: 0714 UTC 16 Jan 2018
Potential Impact None Slight Moderate High
Time15/19Z 15/20Z 15/21Z 15/22Z 15/23Z 16/00Z 16/01Z 16/02Z 16/03Z 16/04Z 16/05Z 16/06Z 16/07Z
VIS10 10 10 10 10 10 10 10 10 10 10 10 10
CIG-- -- -- -- -- -- -- -- -- -- -- -- 250
CoverFEWFEWFEWSCTSCTSCTSCTFEWFEWCLRCLRCLRBKN
FltCatVFRVFRVFRVFRVFRVFRVFRVFRVFRVFRVFRVFRVFR
WX--------------------------
WDir1300240002702802300000100
WSpd4 0 4 0 0 3 7 4 0 0 0 0 5
WGst-- -- -- -- -- -- -- -- -- -- -- -- --
Raw hourly METARs
KPHX 151851Z 13004KT 10SM FEW220 FEW250 19/00 A3009 RMK AO2 SLP179 T01940000
KPHX 151951Z 00000KT 10SM FEW220 FEW250 21/M01 A3006 RMK AO2 SLP169 T02061006
KPHX 152051Z 24004KT 10SM FEW250 22/M02 A3003 RMK AO2 SLP159 T02221017 56029
KPHX 152151Z 00000KT 10SM SCT250 23/M02 A3001 RMK AO2 SLP153 T02331022
KPHX 152251Z 00000KT 10SM SCT250 23/M02 A3000 RMK AO2 SLP150 T02331022
KPHX 152351Z 27003KT 10SM SCT250 23/M02 A3001 RMK AO2 SLP151 T02281022 10239 20172 55008
KPHX 160051Z 28007KT 10SM FEW200 SCT250 22/M01 A3001 RMK AO2 SLP154 T02171011
KPHX 160151Z 23004KT 10SM FEW250 19/02 A3003 RMK AO2 SLP159 T01890022
KPHX 160251Z 00000KT 10SM FEW250 18/02 A3004 RMK AO2 SLP166 T01780022 53012
KPHX 160351Z 00000KT 10SM CLR 17/03 A3005 RMK AO2 SLP169 T01720028
KPHX 160451Z 00000KT 10SM CLR 16/03 A3007 RMK AO2 SLP175 T01560028
KPHX 160551Z 00000KT 10SM CLR 15/03 A3008 RMK AO2 SLP176 T01500033 10233 20150 51012
KPHX 160651Z 10005KT 10SM BKN250 14/03 A3007 RMK AO2 SLP174 T01390033 402390094